Club Med II — FNIR — position and weather

sailwx.info

Track history (hours):
 
Tides and Currents Weather Stations Pressure Air Temp Water Temp Dewpoint Dewpoint Depression Visibility Wind Speed Wind Dir Waves Ship Positions

Club Med II

Operator: V.Ships Leisure S.A.M

Last reported at 2019-Apr-23 01:02 UTC. Time now 2019-Apr-24 22:33 UTC.
Position N 39°23' E 003°31'.

Length 187 m; draft 5.4 m.

Type: Ship. MMSI: 227194000.

Date/timePositionNaut miles runAvg speedWind from/ knotsBaromVisibWave heightAir tempDewpointWater temp
2019-Apr-23 01:02N 39°23' E 003°31'213.4
2019-Apr-23 00:53N 39°22' E 003°29'1413.3
2019-Apr-22 23:51N 39°14' E 003°14'513.9
2019-Apr-22 23:28N 39°11' E 003°08'714.0
2019-Apr-22 23:00N 39°07' E 003°01'814.3
2019-Apr-22 22:26N 39°05' E 002°52'814.5
2019-Apr-22 21:54N 39°03' E 002°42'4914.3
2019-Apr-22 18:29N 38°55' E 001°40'613.7
2019-Apr-22 18:00N 38°54' E 001°31'4 7.5
2019-Apr-22 17:30N 38°55' E 001°27'0 0.0
2019-Apr-22 17:00N 38°55' E 001°26'0 0.0
2019-Apr-22 16:30N 38°55' E 001°27'0 0.0
2019-Apr-22 16:00N 38°55' E 001°27'0 0.0
2019-Apr-22 15:30N 38°55' E 001°27'0 0.0
2019-Apr-22 15:00N 38°55' E 001°27'0 0.0
2019-Apr-22 14:30N 38°55' E 001°27'0 0.0
2019-Apr-22 14:00N 38°55' E 001°27'0 0.0
2019-Apr-22 13:30N 38°55' E 001°27'0 0.0
2019-Apr-22 13:00N 38°55' E 001°26'0 0.0
2019-Apr-22 12:30N 38°55' E 001°27'0 0.0
2019-Apr-22 12:00N 38°55' E 001°27'0 0.0
2019-Apr-22 11:30N 38°55' E 001°27'0 0.0
2019-Apr-22 11:00N 38°55' E 001°27'0 0.0
2019-Apr-22 10:30N 38°55' E 001°27'0 0.0
2019-Apr-22 10:00N 38°55' E 001°27'0 0.0
2019-Apr-22 09:30N 38°55' E 001°27'0 0.0
2019-Apr-22 09:00N 38°55' E 001°27'0 0.0
2019-Apr-22 08:30N 38°55' E 001°27'0 0.0
2019-Apr-22 07:57N 38°55' E 001°26'0 0.0
2019-Apr-22 07:30N 38°55' E 001°27'0 0.0
2019-Apr-22 07:00N 38°55' E 001°26'0 0.3
2019-Apr-22 06:30N 38°55' E 001°27'4 7.0
2019-Apr-22 06:00N 38°52' E 001°30'5 9.1
2019-Apr-22 05:28N 38°48' E 001°33'  
2019-Apr-17 03:19N 37°39' W 009°29'3 8.7
2019-Apr-17 03:00N 37°42' W 009°29'4 8.6
2019-Apr-17 02:30N 37°46' W 009°27'4 8.6
2019-Apr-17 02:00N 37°50' W 009°26'4 8.2
2019-Apr-17 01:30N 37°54' W 009°24'4 8.0
2019-Apr-17 01:00N 37°58' W 009°23'4 8.2
2019-Apr-17 00:30N 38°02' W 009°22'4 8.3
2019-Apr-17 00:00N 38°06' W 009°21'4 7.8
2019-Apr-16 23:30N 38°10' W 009°20'4 6.8
2019-Apr-16 22:58N 38°13' W 009°21'3 6.9
2019-Apr-16 22:30N 38°16' W 009°21'4 7.1
2019-Apr-16 22:00N 38°20' W 009°22'4 7.3
2019-Apr-16 21:30N 38°24' W 009°22'4 7.2
2019-Apr-16 21:00N 38°27' W 009°23'4 7.0
2019-Apr-16 20:30N 38°31' W 009°24'4 7.3
2019-Apr-16 20:00N 38°34' W 009°25'510.7
2019-Apr-16 19:30N 38°38' W 009°21'510.0
2019-Apr-16 19:01N 38°41' W 009°15'611.2
2019-Apr-16 18:31N 38°42' W 009°08'1 2.3
2019-Apr-16 18:00N 38°43' W 009°07'0 0.0
2019-Apr-16 17:28N 38°43' W 009°07'0 0.0
2019-Apr-16 16:58N 38°43' W 009°07'0 0.0
2019-Apr-16 16:28N 38°43' W 009°07'0 0.0
2019-Apr-16 15:58N 38°43' W 009°07'0 0.0
2019-Apr-16 15:25N 38°43' W 009°07'0 0.0
2019-Apr-16 14:58N 38°43' W 009°07'0 0.0
2019-Apr-16 14:19N 38°43' W 009°07'0 0.0
2019-Apr-16 13:52N 38°43' W 009°07'0 0.0
2019-Apr-16 13:13N 38°43' W 009°07'0 0.0
2019-Apr-16 12:58N 38°43' W 009°07'0 0.0
2019-Apr-16 12:19N 38°43' W 009°07'0 0.0
2019-Apr-16 11:52N 38°43' W 009°07'0 0.0
2019-Apr-16 11:13N 38°43' W 009°07'0 0.0
2019-Apr-16 10:46N 38°43' W 009°07'0 0.0
2019-Apr-16 10:22N 38°43' W 009°07'0 0.0
2019-Apr-16 09:58N 38°43' W 009°07'0 0.0
2019-Apr-16 09:28N 38°43' W 009°07'0 0.0
2019-Apr-16 08:58N 38°43' W 009°07'0 0.0
2019-Apr-16 08:28N 38°43' W 009°07'0 0.0
2019-Apr-16 07:55N 38°43' W 009°07'0 0.0
2019-Apr-16 07:19N 38°43' W 009°07'0 0.0
2019-Apr-16 06:55N 38°43' W 009°07'0 0.0
2019-Apr-16 06:28N 38°43' W 009°07'0 0.0
2019-Apr-16 05:58N 38°43' W 009°07'0 0.0
2019-Apr-16 05:28N 38°43' W 009°07'0 0.0
2019-Apr-16 04:58N 38°43' W 009°07'0 0.0
2019-Apr-16 04:28N 38°43' W 009°07'0 0.0
2019-Apr-16 03:52N 38°43' W 009°07'0 0.0
2019-Apr-16 03:28N 38°43' W 009°07'0 0.0
2019-Apr-16 02:55N 38°43' W 009°07'0 0.0
2019-Apr-16 02:25N 38°43' W 009°07'0 0.0
2019-Apr-16 01:58N 38°43' W 009°07'0 0.0
2019-Apr-16 01:28N 38°43' W 009°07'0 0.0
2019-Apr-16 00:55N 38°43' W 009°07'0 0.0
2019-Apr-16 00:22N 38°43' W 009°07'0 0.0
2019-Apr-15 23:49N 38°43' W 009°07'0 0.0
2019-Apr-15 23:28N 38°43' W 009°07'0 0.0
2019-Apr-15 22:49N 38°43' W 009°07'0 0.0
2019-Apr-15 22:10N 38°43' W 009°07'0 0.0
2019-Apr-15 21:43N 38°43' W 009°07'0 0.0
2019-Apr-15 21:28N 38°43' W 009°07'0 0.0
2019-Apr-15 20:58N 38°43' W 009°07'0 0.0
2019-Apr-15 20:28N 38°43' W 009°07'0 0.0
2019-Apr-15 19:52N 38°43' W 009°07'0 0.0
2019-Apr-15 19:28N 38°43' W 009°07'0 0.0
2019-Apr-15 18:58N 38°43' W 009°07'0 0.0
2019-Apr-15 18:28N 38°43' W 009°07'0 0.0
2019-Apr-15 17:52N 38°43' W 009°07'0 0.0
2019-Apr-15 17:28N 38°43' W 009°07'0 0.0
2019-Apr-15 17:00N 38°43' W 009°07'3 6.4
2019-Apr-15 16:29N 38°41' W 009°11'5 9.8
2019-Apr-15 16:00N 38°41' W 009°17'611.8
2019-Apr-15 15:30N 38°37' W 009°23'713.3
2019-Apr-15 15:00N 38°32' W 009°28'713.2
2019-Apr-15 14:30N 38°26' W 009°33'713.1
2019-Apr-15 14:00N 38°21' W 009°38'612.5
2019-Apr-15 13:29N 38°16' W 009°43'  
Track history (hours):
 
Tides and Currents Weather Stations Pressure Air Temp Water Temp Dewpoint Dewpoint Depression Visibility Wind Speed Wind Dir Waves Ship Positions

Club Med II

Operator: V.Ships Leisure S.A.M

Last reported at 2019-Apr-23 01:02 UTC. Time now 2019-Apr-24 22:33 UTC.
Position N 39°23' E 003°31'.

Length 187 m; draft 5.4 m.

Type: Ship. MMSI: 227194000.

Date/timePositionNaut miles runAvg speedWind from/ knotsBaromVisibWave heightAir tempDewpointWater temp
2019-Apr-23 01:02N 39°23' E 003°31'213.4
2019-Apr-23 00:53N 39°22' E 003°29'1413.3
2019-Apr-22 23:51N 39°14' E 003°14'513.9
2019-Apr-22 23:28N 39°11' E 003°08'714.0
2019-Apr-22 23:00N 39°07' E 003°01'814.3
2019-Apr-22 22:26N 39°05' E 002°52'814.5
2019-Apr-22 21:54N 39°03' E 002°42'4914.3
2019-Apr-22 18:29N 38°55' E 001°40'613.7
2019-Apr-22 18:00N 38°54' E 001°31'4 7.5
2019-Apr-22 17:30N 38°55' E 001°27'0 0.0
2019-Apr-22 17:00N 38°55' E 001°26'0 0.0
2019-Apr-22 16:30N 38°55' E 001°27'0 0.0
2019-Apr-22 16:00N 38°55' E 001°27'0 0.0
2019-Apr-22 15:30N 38°55' E 001°27'0 0.0
2019-Apr-22 15:00N 38°55' E 001°27'0 0.0
2019-Apr-22 14:30N 38°55' E 001°27'0 0.0
2019-Apr-22 14:00N 38°55' E 001°27'0 0.0
2019-Apr-22 13:30N 38°55' E 001°27'0 0.0
2019-Apr-22 13:00N 38°55' E 001°26'0 0.0
2019-Apr-22 12:30N 38°55' E 001°27'0 0.0
2019-Apr-22 12:00N 38°55' E 001°27'0 0.0
2019-Apr-22 11:30N 38°55' E 001°27'0 0.0
2019-Apr-22 11:00N 38°55' E 001°27'0 0.0
2019-Apr-22 10:30N 38°55' E 001°27'0 0.0
2019-Apr-22 10:00N 38°55' E 001°27'0 0.0
2019-Apr-22 09:30N 38°55' E 001°27'0 0.0
2019-Apr-22 09:00N 38°55' E 001°27'0 0.0
2019-Apr-22 08:30N 38°55' E 001°27'0 0.0
2019-Apr-22 07:57N 38°55' E 001°26'0 0.0
2019-Apr-22 07:30N 38°55' E 001°27'0 0.0
2019-Apr-22 07:00N 38°55' E 001°26'0 0.3
2019-Apr-22 06:30N 38°55' E 001°27'4 7.0
2019-Apr-22 06:00N 38°52' E 001°30'5 9.1
2019-Apr-22 05:28N 38°48' E 001°33'  
2019-Apr-17 03:19N 37°39' W 009°29'3 8.7
2019-Apr-17 03:00N 37°42' W 009°29'4 8.6
2019-Apr-17 02:30N 37°46' W 009°27'4 8.6
2019-Apr-17 02:00N 37°50' W 009°26'4 8.2
2019-Apr-17 01:30N 37°54' W 009°24'4 8.0
2019-Apr-17 01:00N 37°58' W 009°23'4 8.2
2019-Apr-17 00:30N 38°02' W 009°22'4 8.3
2019-Apr-17 00:00N 38°06' W 009°21'4 7.8
2019-Apr-16 23:30N 38°10' W 009°20'4 6.8
2019-Apr-16 22:58N 38°13' W 009°21'3 6.9
2019-Apr-16 22:30N 38°16' W 009°21'4 7.1
2019-Apr-16 22:00N 38°20' W 009°22'4 7.3
2019-Apr-16 21:30N 38°24' W 009°22'4 7.2
2019-Apr-16 21:00N 38°27' W 009°23'4 7.0
2019-Apr-16 20:30N 38°31' W 009°24'4 7.3
2019-Apr-16 20:00N 38°34' W 009°25'510.7
2019-Apr-16 19:30N 38°38' W 009°21'510.0
2019-Apr-16 19:01N 38°41' W 009°15'611.2
2019-Apr-16 18:31N 38°42' W 009°08'1 2.3
2019-Apr-16 18:00N 38°43' W 009°07'0 0.0
2019-Apr-16 17:28N 38°43' W 009°07'0 0.0
2019-Apr-16 16:58N 38°43' W 009°07'0 0.0
2019-Apr-16 16:28N 38°43' W 009°07'0 0.0
2019-Apr-16 15:58N 38°43' W 009°07'0 0.0
2019-Apr-16 15:25N 38°43' W 009°07'0 0.0
2019-Apr-16 14:58N 38°43' W 009°07'0 0.0
2019-Apr-16 14:19N 38°43' W 009°07'0 0.0
2019-Apr-16 13:52N 38°43' W 009°07'0 0.0
2019-Apr-16 13:13N 38°43' W 009°07'0 0.0
2019-Apr-16 12:58N 38°43' W 009°07'0 0.0
2019-Apr-16 12:19N 38°43' W 009°07'0 0.0
2019-Apr-16 11:52N 38°43' W 009°07'0 0.0
2019-Apr-16 11:13N 38°43' W 009°07'0 0.0
2019-Apr-16 10:46N 38°43' W 009°07'0 0.0
2019-Apr-16 10:22N 38°43' W 009°07'0 0.0
2019-Apr-16 09:58N 38°43' W 009°07'0 0.0
2019-Apr-16 09:28N 38°43' W 009°07'0 0.0
2019-Apr-16 08:58N 38°43' W 009°07'0 0.0
2019-Apr-16 08:28N 38°43' W 009°07'0 0.0
2019-Apr-16 07:55N 38°43' W 009°07'0 0.0
2019-Apr-16 07:19N 38°43' W 009°07'0 0.0
2019-Apr-16 06:55N 38°43' W 009°07'0 0.0
2019-Apr-16 06:28N 38°43' W 009°07'0 0.0
2019-Apr-16 05:58N 38°43' W 009°07'0 0.0
2019-Apr-16 05:28N 38°43' W 009°07'0 0.0
2019-Apr-16 04:58N 38°43' W 009°07'0 0.0
2019-Apr-16 04:28N 38°43' W 009°07'0 0.0
2019-Apr-16 03:52N 38°43' W 009°07'0 0.0
2019-Apr-16 03:28N 38°43' W 009°07'0 0.0
2019-Apr-16 02:55N 38°43' W 009°07'0 0.0
2019-Apr-16 02:25N 38°43' W 009°07'0 0.0
2019-Apr-16 01:58N 38°43' W 009°07'0 0.0
2019-Apr-16 01:28N 38°43' W 009°07'0 0.0
2019-Apr-16 00:55N 38°43' W 009°07'0 0.0
2019-Apr-16 00:22N 38°43' W 009°07'0 0.0
2019-Apr-15 23:49N 38°43' W 009°07'0 0.0
2019-Apr-15 23:28N 38°43' W 009°07'0 0.0
2019-Apr-15 22:49N 38°43' W 009°07'0 0.0
2019-Apr-15 22:10N 38°43' W 009°07'0 0.0
2019-Apr-15 21:43N 38°43' W 009°07'0 0.0
2019-Apr-15 21:28N 38°43' W 009°07'0 0.0
2019-Apr-15 20:58N 38°43' W 009°07'0 0.0
2019-Apr-15 20:28N 38°43' W 009°07'0 0.0
2019-Apr-15 19:52N 38°43' W 009°07'0 0.0
2019-Apr-15 19:28N 38°43' W 009°07'0 0.0
2019-Apr-15 18:58N 38°43' W 009°07'0 0.0
2019-Apr-15 18:28N 38°43' W 009°07'0 0.0
2019-Apr-15 17:52N 38°43' W 009°07'0 0.0
2019-Apr-15 17:28N 38°43' W 009°07'0 0.0
2019-Apr-15 17:00N 38°43' W 009°07'3 6.4
2019-Apr-15 16:29N 38°41' W 009°11'5 9.8
2019-Apr-15 16:00N 38°41' W 009°17'611.8
2019-Apr-15 15:30N 38°37' W 009°23'713.3
2019-Apr-15 15:00N 38°32' W 009°28'713.2
2019-Apr-15 14:30N 38°26' W 009°33'713.1
2019-Apr-15 14:00N 38°21' W 009°38'612.5
2019-Apr-15 13:29N 38°16' W 009°43'  

Dump ship's entire track history